createdAt,value
2019-05-26T00:01:43.602Z,7.92
2019-05-26T00:04:12.473Z,8.45
2019-05-26T00:06:41.774Z,8.90
2019-05-26T00:09:11.066Z,8.60
2019-05-26T00:11:39.943Z,7.83
2019-05-26T00:14:08.860Z,8.55
2019-05-26T00:16:37.736Z,8.83
2019-05-26T00:19:07.259Z,8.70
2019-05-26T00:21:36.104Z,8.15
2019-05-26T00:24:04.995Z,8.57
2019-05-26T00:26:33.805Z,7.83
2019-05-26T00:29:02.915Z,7.87
2019-05-26T00:31:32.098Z,8.58
2019-05-26T00:34:01.214Z,8.90
2019-05-26T00:36:30.531Z,7.90
2019-05-26T00:38:59.385Z,8.37
2019-05-26T00:41:28.339Z,7.87
2019-05-26T00:43:57.787Z,8.20
2019-05-26T00:46:26.711Z,9.15
2019-05-26T00:48:55.646Z,8.83
2019-05-26T00:51:24.873Z,8.83
2019-05-26T00:53:54.172Z,9.48
2019-05-26T00:56:23.020Z,9.25
2019-05-26T00:58:52.843Z,8.93
2019-05-26T01:01:21.653Z,8.50
2019-05-26T01:03:50.787Z,8.68
2019-05-26T01:06:19.756Z,8.28
2019-05-26T01:08:48.636Z,7.87
2019-05-26T01:11:17.566Z,8.50
2019-05-26T01:13:46.424Z,8.00
2019-05-26T01:16:15.315Z,8.00
2019-05-26T01:18:44.624Z,7.85
2019-05-26T01:21:13.761Z,8.28
2019-05-26T01:23:43.217Z,8.20
2019-05-26T01:26:12.088Z,7.12
2019-05-26T01:28:40.999Z,6.40
2019-05-26T01:31:10.167Z,5.78
2019-05-26T01:33:39.298Z,6.00
2019-05-26T01:36:08.702Z,5.37
2019-05-26T01:38:38.174Z,5.53
2019-05-26T01:41:07.413Z,5.50
2019-05-26T01:43:36.500Z,6.30
2019-05-26T01:46:05.800Z,6.22
2019-05-26T01:48:34.887Z,5.85
2019-05-26T01:51:03.836Z,6.40
2019-05-26T01:53:32.742Z,5.90
2019-05-26T01:56:01.887Z,6.28
2019-05-26T01:58:30.968Z,6.28
2019-05-26T02:01:00.175Z,6.05
2019-05-26T02:03:29.029Z,7.00
2019-05-26T02:05:58.293Z,7.40
2019-05-26T02:08:38.877Z,6.90
2019-05-26T02:10:58.221Z,7.15
2019-05-26T02:13:27.377Z,6.85
2019-05-26T02:15:56.586Z,6.90
2019-05-26T02:18:25.526Z,6.15
2019-05-26T02:20:54.350Z,6.70
2019-05-26T02:23:23.341Z,6.97
2019-05-26T02:25:52.298Z,6.80
2019-05-26T02:28:21.238Z,6.72
2019-05-26T02:30:50.174Z,7.10
2019-05-26T02:33:19.134Z,7.20
2019-05-26T02:35:48.438Z,6.97
2019-05-26T02:38:17.577Z,6.78
2019-05-26T02:40:46.527Z,6.83
2019-05-26T02:43:15.459Z,7.10
2019-05-26T02:45:44.710Z,7.33
2019-05-26T02:48:14.717Z,7.65
2019-05-26T02:50:43.976Z,7.23
2019-05-26T02:53:13.101Z,7.15
2019-05-26T02:55:42.311Z,7.10
2019-05-26T02:58:11.223Z,7.20
2019-05-26T03:00:44.352Z,6.97
2019-05-26T03:03:14.559Z,6.62
2019-05-26T03:05:45.373Z,6.67
2019-05-26T03:08:14.965Z,7.28
2019-05-26T03:10:44.218Z,6.95
2019-05-26T03:13:17.323Z,6.08
2019-05-26T03:15:47.376Z,6.80
2019-05-26T03:18:16.808Z,7.10
2019-05-26T03:20:45.878Z,6.78
2019-05-26T03:23:16.649Z,6.72
2019-05-26T03:25:45.788Z,7.43
2019-05-26T03:28:14.771Z,6.97
2019-05-26T03:30:44.007Z,6.90
2019-05-26T03:33:12.908Z,7.17
2019-05-26T03:35:42.097Z,7.42
2019-05-26T03:38:11.374Z,8.05
2019-05-26T03:40:40.337Z,8.50
2019-05-26T03:43:09.940Z,9.23
2019-05-26T03:46:16.297Z,9.00
2019-05-26T03:48:45.254Z,9.55
2019-05-26T03:51:14.960Z,10.82
2019-05-26T03:53:44.359Z,9.68
2019-05-26T03:56:13.364Z,9.93
2019-05-26T03:58:42.217Z,10.18
2019-05-26T04:01:11.427Z,10.60
2019-05-26T04:03:40.313Z,10.80
2019-05-26T04:06:09.251Z,11.73
2019-05-26T04:08:38.381Z,12.25
2019-05-26T04:11:07.261Z,12.23
2019-05-26T04:13:36.135Z,12.15
2019-05-26T04:16:05.227Z,11.68
2019-05-26T04:18:34.148Z,12.30
2019-05-26T04:21:03.108Z,13.13
2019-05-26T04:23:32.329Z,13.10
2019-05-26T04:26:01.567Z,12.37
2019-05-26T04:28:30.483Z,13.03
2019-05-26T04:30:59.274Z,13.10
2019-05-26T04:33:28.134Z,12.80
2019-05-26T04:35:57.341Z,12.75
2019-05-26T04:38:26.181Z,14.23
2019-05-26T04:40:55.169Z,14.07
2019-05-26T04:43:24.077Z,13.40
2019-05-26T04:45:53.020Z,13.90
2019-05-26T04:48:22.755Z,14.80
2019-05-26T04:50:51.672Z,15.10
2019-05-26T04:53:20.772Z,14.58
2019-05-26T04:55:49.840Z,14.90
2019-05-26T04:58:18.697Z,16.15
2019-05-26T05:00:47.699Z,16.73
2019-05-26T05:03:16.471Z,16.40
2019-05-26T05:05:45.385Z,14.80
2019-05-26T05:08:14.344Z,16.62
2019-05-26T05:10:43.539Z,16.70
2019-05-26T05:13:12.699Z,16.30
2019-05-26T05:15:41.658Z,17.10
2019-05-26T05:18:10.862Z,17.65
2019-05-26T05:20:40.581Z,17.75
2019-05-26T05:23:09.855Z,17.90
2019-05-26T05:25:39.177Z,18.45
2019-05-26T05:28:08.017Z,17.37
2019-05-26T05:30:37.229Z,17.80
2019-05-26T05:33:06.164Z,16.97
2019-05-26T05:35:35.033Z,18.12
2019-05-26T05:38:03.961Z,18.23
2019-05-26T05:40:33.085Z,17.67
2019-05-26T05:43:02.847Z,18.17
2019-05-26T05:45:31.922Z,17.62
2019-05-26T05:48:00.720Z,17.98
2019-05-26T05:50:29.600Z,17.27
2019-05-26T05:52:58.566Z,16.65
2019-05-26T05:55:27.785Z,18.00
2019-05-26T05:57:56.546Z,16.95
2019-05-26T06:00:25.579Z,16.85
2019-05-26T06:02:54.763Z,18.10
2019-05-26T06:05:23.601Z,17.23
2019-05-26T06:07:52.742Z,18.30
2019-05-26T06:10:22.467Z,17.67
2019-05-26T06:12:51.426Z,16.40
2019-05-26T06:15:20.300Z,16.85
2019-05-26T06:17:49.238Z,17.27
2019-05-26T06:20:18.733Z,17.12
2019-05-26T06:22:47.613Z,17.23
2019-05-26T06:25:17.194Z,16.80
2019-05-26T06:27:46.189Z,17.10
2019-05-26T06:30:15.876Z,17.20
2019-05-26T06:32:44.716Z,17.10
2019-05-26T06:35:14.119Z,16.70
2019-05-26T06:37:43.065Z,17.35
2019-05-26T06:40:12.416Z,16.52
2019-05-26T06:42:42.122Z,17.82
2019-05-26T06:45:11.377Z,17.60
2019-05-26T06:47:40.387Z,16.90
2019-05-26T06:50:10.448Z,17.48
2019-05-26T06:52:39.655Z,17.42
2019-05-26T06:55:08.841Z,16.70
2019-05-26T06:57:37.710Z,16.30
2019-05-26T07:00:07.474Z,16.70
2019-05-26T07:02:36.630Z,17.67
2019-05-26T07:05:05.999Z,17.90
2019-05-26T07:07:35.264Z,15.78
2019-05-26T07:10:04.681Z,17.20
2019-05-26T07:12:33.564Z,17.95
2019-05-26T07:15:02.846Z,18.60
2019-05-26T07:17:31.714Z,18.80
2019-05-26T07:20:00.915Z,17.75
2019-05-26T07:22:30.448Z,18.10
2019-05-26T07:24:59.417Z,19.48
2019-05-26T07:27:28.330Z,18.10
2019-05-26T07:29:57.226Z,17.37
2019-05-26T07:32:26.389Z,18.13
2019-05-26T07:34:55.600Z,23.67
2019-05-26T07:37:24.460Z,18.95
2019-05-26T07:39:53.648Z,20.53
2019-05-26T07:42:22.866Z,19.60
2019-05-26T07:44:51.977Z,17.60
2019-05-26T07:47:21.219Z,16.82
2019-05-26T07:49:50.323Z,17.65
2019-05-26T07:52:19.191Z,16.40
2019-05-26T07:54:48.070Z,16.37
2019-05-26T07:57:16.946Z,15.93
2019-05-26T07:59:46.207Z,16.00
2019-05-26T08:02:15.242Z,15.00
2019-05-26T08:04:44.032Z,15.37
2019-05-26T08:07:13.108Z,14.38
2019-05-26T08:09:42.042Z,12.65
2019-05-26T08:12:24.924Z,12.90
2019-05-26T08:14:41.826Z,12.90
2019-05-26T08:17:11.086Z,12.05
2019-05-26T08:19:40.345Z,15.58
2019-05-26T08:22:09.274Z,14.28
2019-05-26T08:24:38.562Z,13.28
2019-05-26T08:27:07.487Z,13.00
2019-05-26T08:29:36.443Z,10.88
2019-05-26T08:32:05.883Z,9.27
2019-05-26T08:34:34.818Z,7.67
2019-05-26T08:37:04.084Z,7.10
2019-05-26T08:39:33.437Z,6.87
2019-05-26T08:42:02.341Z,6.72
2019-05-26T08:44:31.592Z,11.65
2019-05-26T08:47:00.491Z,12.78
2019-05-26T08:49:29.413Z,13.80
2019-05-26T08:51:58.541Z,7.20
2019-05-26T08:54:27.401Z,6.20
2019-05-26T08:56:56.563Z,6.08
2019-05-26T08:59:25.408Z,6.62
2019-05-26T09:01:54.355Z,7.05
2019-05-26T09:04:23.546Z,8.73
2019-05-26T09:06:52.720Z,7.22
2019-05-26T09:09:21.581Z,6.20
2019-05-26T09:11:50.485Z,6.10
2019-05-26T09:14:19.341Z,5.62
2019-05-26T09:16:48.313Z,5.45
2019-05-26T09:19:17.453Z,5.37
2019-05-26T09:21:46.710Z,6.15
2019-05-26T09:24:15.609Z,5.40
2019-05-26T09:26:45.087Z,5.00
2019-05-26T09:29:13.943Z,5.10
2019-05-26T09:31:42.964Z,5.35
2019-05-26T09:34:12.172Z,5.60
2019-05-26T09:36:43.951Z,5.40
2019-05-26T09:39:12.898Z,5.70
2019-05-26T09:41:41.941Z,6.80
2019-05-26T09:44:11.108Z,7.60
2019-05-26T09:46:40.059Z,6.87
2019-05-26T09:49:09.119Z,7.10
2019-05-26T09:51:38.405Z,5.67
2019-05-26T09:54:07.323Z,4.62
2019-05-26T09:56:36.185Z,4.62
2019-05-26T09:59:05.117Z,4.22
2019-05-26T10:01:34.105Z,4.00
2019-05-26T10:04:02.969Z,4.03
2019-05-26T10:06:31.856Z,4.03
2019-05-26T10:09:00.799Z,3.22
2019-05-26T10:11:30.049Z,4.83
2019-05-26T10:13:58.939Z,7.72
2019-05-26T10:16:27.953Z,10.75
2019-05-26T10:18:57.230Z,6.30
2019-05-26T10:21:26.412Z,5.03
2019-05-26T10:23:55.317Z,4.50
2019-05-26T10:26:24.257Z,4.15
2019-05-26T10:28:53.707Z,3.83
2019-05-26T10:31:22.585Z,3.70
2019-05-26T10:33:51.838Z,3.35
2019-05-26T10:36:20.933Z,3.50
2019-05-26T10:38:49.715Z,3.90
2019-05-26T10:41:18.572Z,3.70
2019-05-26T10:43:47.993Z,4.15
2019-05-26T10:46:17.547Z,3.83
2019-05-26T10:48:46.417Z,3.52
2019-05-26T10:51:15.260Z,3.80
2019-05-26T10:53:44.570Z,3.80
2019-05-26T10:56:13.751Z,3.97
2019-05-26T10:58:42.621Z,4.20
2019-05-26T11:01:11.556Z,3.87
2019-05-26T11:03:40.455Z,3.55
2019-05-26T11:06:09.635Z,4.20
2019-05-26T11:08:38.551Z,4.37
2019-05-26T11:11:07.481Z,4.17
2019-05-26T11:13:36.606Z,4.50
2019-05-26T11:16:05.663Z,4.00
2019-05-26T11:18:34.898Z,4.30
2019-05-26T11:21:04.002Z,4.20
2019-05-26T11:23:32.979Z,4.00
2019-05-26T11:26:01.830Z,3.80
2019-05-26T11:28:30.814Z,3.80
2019-05-26T11:30:59.732Z,4.45
2019-05-26T11:33:29.103Z,3.80
2019-05-26T11:35:58.185Z,3.55
2019-05-26T11:38:27.345Z,3.60
2019-05-26T11:40:57.117Z,3.15
2019-05-26T11:43:26.265Z,2.90
2019-05-26T11:45:55.224Z,2.70
2019-05-26T11:48:39.709Z,2.25
2019-05-26T11:51:09.011Z,2.37
2019-05-26T11:53:37.799Z,2.45
2019-05-26T11:56:06.622Z,2.42
2019-05-26T11:58:35.515Z,2.70
2019-05-26T12:01:04.427Z,2.62
2019-05-26T12:03:33.288Z,2.40
2019-05-26T12:06:02.224Z,2.00
2019-05-26T12:08:31.450Z,2.33
2019-05-26T12:11:00.315Z,2.10
2019-05-26T12:13:29.514Z,2.20
2019-05-26T12:15:58.450Z,2.40
2019-05-26T12:18:27.305Z,1.82
2019-05-26T12:20:56.211Z,2.00
2019-05-26T12:23:25.159Z,2.00
2019-05-26T12:25:54.270Z,2.33
2019-05-26T12:28:23.491Z,2.10
2019-05-26T12:30:52.437Z,2.10
2019-05-26T12:33:21.307Z,2.02
2019-05-26T12:35:50.457Z,2.50
2019-05-26T12:38:19.327Z,2.00
2019-05-26T12:40:48.227Z,3.50
2019-05-26T12:43:17.262Z,7.42
2019-05-26T12:45:46.476Z,5.85
2019-05-26T12:48:15.415Z,6.80
2019-05-26T12:50:44.540Z,3.23
2019-05-26T12:53:13.478Z,19.02
2019-05-26T12:55:42.479Z,18.20
2019-05-26T12:58:11.597Z,13.48
2019-05-26T13:00:48.711Z,15.70
2019-05-26T13:03:11.451Z,11.57
2019-05-26T13:05:40.235Z,11.20
2019-05-26T13:08:09.539Z,5.80
2019-05-26T13:10:38.407Z,5.30
2019-05-26T13:13:07.341Z,4.00
2019-05-26T13:15:36.203Z,4.30
2019-05-26T13:18:05.145Z,4.05
2019-05-26T13:20:33.987Z,3.42
2019-05-26T13:23:03.200Z,3.40
2019-05-26T13:25:32.397Z,3.30
2019-05-26T13:28:01.328Z,3.58
2019-05-26T13:30:30.696Z,3.50
2019-05-26T13:33:00.248Z,3.30
2019-05-26T13:35:29.119Z,3.60
2019-05-26T13:37:58.028Z,3.75
2019-05-26T13:40:29.543Z,3.95
2019-05-26T13:42:58.571Z,3.00
2019-05-26T13:45:27.733Z,3.15
2019-05-26T13:47:57.005Z,3.40
2019-05-26T13:50:26.520Z,3.10
2019-05-26T13:52:55.808Z,3.50
2019-05-26T13:55:24.757Z,3.25
2019-05-26T13:57:53.617Z,3.45
2019-05-26T14:00:24.101Z,3.75
2019-05-26T14:02:53.332Z,3.83
2019-05-26T14:05:22.297Z,3.60
2019-05-26T14:07:51.440Z,3.72
2019-05-26T14:10:31.638Z,3.70
2019-05-26T14:13:00.869Z,3.47
2019-05-26T14:15:37.991Z,3.90
2019-05-26T14:18:01.007Z,3.02
2019-05-26T14:20:39.757Z,3.20
2019-05-26T14:23:09.715Z,2.80
2019-05-26T14:25:39.251Z,3.10
2019-05-26T14:28:08.585Z,6.97
2019-05-26T14:30:37.533Z,8.30
2019-05-26T14:33:06.549Z,12.05
2019-05-26T14:35:36.266Z,7.33
2019-05-26T14:38:05.236Z,5.55
2019-05-26T14:40:34.476Z,5.05
2019-05-26T14:43:03.738Z,4.00
2019-05-26T14:45:32.688Z,3.52
2019-05-26T14:48:01.673Z,3.90
2019-05-26T14:50:30.932Z,3.17
2019-05-26T14:52:59.780Z,4.00
2019-05-26T14:55:28.745Z,3.62
2019-05-26T14:58:12.348Z,3.00
2019-05-26T15:00:28.621Z,4.70
2019-05-26T15:02:57.771Z,10.45
2019-05-26T15:05:26.642Z,7.62
2019-05-26T15:07:55.577Z,7.15
2019-05-26T15:10:24.773Z,5.50
2019-05-26T15:12:53.708Z,5.40
2019-05-26T15:15:22.812Z,3.40
2019-05-26T15:17:51.683Z,4.00
2019-05-26T15:20:21.301Z,3.70
2019-05-26T15:22:51.107Z,3.30
2019-05-26T15:25:20.513Z,5.35
2019-05-26T15:27:49.787Z,6.80
2019-05-26T15:30:19.047Z,8.07
2019-05-26T15:32:48.868Z,5.85
2019-05-26T15:35:17.817Z,5.08
2019-05-26T15:37:47.013Z,6.05
2019-05-26T15:40:15.979Z,3.98
2019-05-26T15:42:45.543Z,3.70
2019-05-26T15:45:15.688Z,4.30
2019-05-26T15:47:44.574Z,3.70
2019-05-26T15:53:00.228Z,4.30
2019-05-26T15:55:29.447Z,3.60
2019-05-26T15:57:58.624Z,3.47
2019-05-26T16:00:27.526Z,3.90
2019-05-26T16:02:56.351Z,3.10
2019-05-26T16:05:25.268Z,3.30
2019-05-26T16:07:54.116Z,3.30
2019-05-26T16:10:22.958Z,3.20
2019-05-26T16:12:51.808Z,3.20
2019-05-26T16:15:20.773Z,3.30
2019-05-26T16:17:49.722Z,3.83
2019-05-26T16:20:18.811Z,3.33
2019-05-26T16:22:48.036Z,3.22
2019-05-26T16:25:16.972Z,3.67
2019-05-26T16:27:45.846Z,3.22
2019-05-26T16:30:15.328Z,3.40
2019-05-26T16:32:44.146Z,3.52
2019-05-26T16:35:13.098Z,3.40
2019-05-26T16:37:41.963Z,3.37
2019-05-26T16:40:11.069Z,3.20
2019-05-26T16:42:40.282Z,3.60
2019-05-26T16:45:09.364Z,3.40
2019-05-26T16:47:38.245Z,2.90
2019-05-26T16:50:07.290Z,3.70
2019-05-26T16:52:36.265Z,3.80
2019-05-26T16:55:06.019Z,3.40
2019-05-26T16:57:35.176Z,5.97
2019-05-26T17:00:04.406Z,5.80
2019-05-26T17:02:33.257Z,9.60
2019-05-26T17:05:02.451Z,4.60
2019-05-26T17:07:31.321Z,4.65
2019-05-26T17:10:00.540Z,4.70
2019-05-26T17:12:29.577Z,4.83
2019-05-26T17:14:58.429Z,4.72
2019-05-26T17:17:27.311Z,5.53
2019-05-26T17:19:56.258Z,5.30
2019-05-26T17:22:25.227Z,7.80
2019-05-26T17:24:54.579Z,4.83
2019-05-26T17:27:24.117Z,4.40
2019-05-26T17:29:53.058Z,5.97
2019-05-26T17:32:22.178Z,4.63
2019-05-26T17:34:51.029Z,5.22
2019-05-26T17:37:19.986Z,4.35
2019-05-26T17:39:48.852Z,5.87
2019-05-26T17:42:18.135Z,7.00
2019-05-26T17:44:47.440Z,7.80
2019-05-26T17:47:29.236Z,5.22
2019-05-26T17:49:47.048Z,4.30
2019-05-26T17:52:15.796Z,3.80
2019-05-26T17:54:44.575Z,4.92
2019-05-26T17:57:13.495Z,4.50
2019-05-26T17:59:42.350Z,5.35
2019-05-26T18:02:11.300Z,5.17
2019-05-26T18:04:40.158Z,4.28
2019-05-26T18:07:09.336Z,4.85
2019-05-26T18:09:44.257Z,4.20
2019-05-26T18:12:09.595Z,4.40
2019-05-26T18:14:38.482Z,4.22
2019-05-26T18:17:08.253Z,5.35
2019-05-26T18:19:37.248Z,3.40
2019-05-26T18:22:06.303Z,4.72
2019-05-26T18:24:35.197Z,4.08
2019-05-26T18:27:04.054Z,4.67
2019-05-26T18:29:33.032Z,7.35
2019-05-26T18:32:02.430Z,6.95
2019-05-26T18:34:31.868Z,6.67
2019-05-26T18:37:01.050Z,5.55
2019-05-26T18:39:29.929Z,5.55
2019-05-26T18:41:58.785Z,6.20
2019-05-26T18:44:27.638Z,5.60
2019-05-26T18:46:56.499Z,4.60
2019-05-26T18:49:25.435Z,4.00
2019-05-26T18:51:54.307Z,4.22
2019-05-26T18:54:23.182Z,5.03
2019-05-26T18:56:52.128Z,5.15
2019-05-26T18:59:21.249Z,4.70
2019-05-26T19:01:50.470Z,6.35
2019-05-26T19:04:19.416Z,5.62
2019-05-26T19:06:48.314Z,5.97
2019-05-26T19:09:17.308Z,7.37
2019-05-26T19:11:46.202Z,8.18
2019-05-26T19:14:15.457Z,6.72
2019-05-26T19:16:44.324Z,4.85
2019-05-26T19:19:13.216Z,4.43
2019-05-26T19:21:42.180Z,4.47
2019-05-26T19:24:11.286Z,4.37
2019-05-26T19:26:40.496Z,5.90
2019-05-26T19:29:09.431Z,4.10
2019-05-26T19:31:38.321Z,5.13
2019-05-26T19:34:07.292Z,8.03
2019-05-26T19:36:36.177Z,7.15
2019-05-26T19:39:08.013Z,5.50
2019-05-26T19:41:39.281Z,5.30
2019-05-26T19:44:07.858Z,5.78
2019-05-26T19:46:37.019Z,5.20
2019-05-26T19:49:05.982Z,5.07
2019-05-26T19:51:35.430Z,4.42
2019-05-26T19:54:04.492Z,3.95
2019-05-26T19:56:33.531Z,5.10
2019-05-26T19:59:02.474Z,4.30
2019-05-26T20:01:32.128Z,3.85
2019-05-26T20:04:01.270Z,4.50
2019-05-26T20:06:30.211Z,4.10
2019-05-26T20:08:59.012Z,3.90
2019-05-26T20:11:28.115Z,3.87
2019-05-26T20:13:57.219Z,4.08
2019-05-26T20:16:26.175Z,4.90
2019-05-26T20:18:55.115Z,4.83
2019-05-26T20:21:23.978Z,4.95
2019-05-26T20:23:52.819Z,4.80
2019-05-26T20:26:21.601Z,4.30
2019-05-26T20:28:50.641Z,4.58
2019-05-26T20:31:19.789Z,4.10
2019-05-26T20:33:48.848Z,4.40
2019-05-26T20:36:17.802Z,4.55
2019-05-26T20:38:47.084Z,6.65
2019-05-26T20:41:16.067Z,4.43
2019-05-26T20:43:44.913Z,3.92
2019-05-26T20:46:14.471Z,3.90
2019-05-26T20:48:43.771Z,4.85
2019-05-26T20:51:12.922Z,4.40
2019-05-26T20:53:41.871Z,4.60
2019-05-26T20:56:10.829Z,5.47
2019-05-26T20:58:39.683Z,6.30
2019-05-26T21:01:08.576Z,7.80
2019-05-26T21:03:37.810Z,7.55
2019-05-26T21:06:06.676Z,6.08
2019-05-26T21:08:35.587Z,5.97
2019-05-26T21:11:04.429Z,4.22
2019-05-26T21:13:33.291Z,6.70
2019-05-26T21:16:02.436Z,3.72
2019-05-26T21:18:31.406Z,8.30
2019-05-26T21:21:15.653Z,7.12
2019-05-26T21:23:44.618Z,8.63
2019-05-26T21:26:13.858Z,5.77
2019-05-26T21:28:43.168Z,6.60
2019-05-26T21:31:12.162Z,7.97
2019-05-26T21:33:41.378Z,4.53
2019-05-26T21:36:10.373Z,4.80
2019-05-26T21:38:39.250Z,6.08
2019-05-26T21:41:09.057Z,6.10
2019-05-26T21:43:38.485Z,7.08
2019-05-26T21:46:07.338Z,6.90
2019-05-26T21:48:36.220Z,7.87
2019-05-26T21:51:05.484Z,9.87
2019-05-26T21:53:34.407Z,8.60
2019-05-26T21:56:03.261Z,7.42
2019-05-26T21:58:32.254Z,6.57
2019-05-26T22:01:01.206Z,5.80
2019-05-26T22:03:30.274Z,4.95
2019-05-26T22:05:59.162Z,4.20
2019-05-26T22:08:28.014Z,4.83
2019-05-26T22:10:57.299Z,6.90
2019-05-26T22:13:26.059Z,8.13
2019-05-26T22:15:55.225Z,10.50
2019-05-26T22:18:24.439Z,7.90
2019-05-26T22:20:53.258Z,7.23
2019-05-26T22:23:22.139Z,6.65
2019-05-26T22:25:51.133Z,7.70
2019-05-26T22:28:20.055Z,4.80
2019-05-26T22:30:49.538Z,7.22
2019-05-26T22:33:18.309Z,6.90
2019-05-26T22:35:48.130Z,4.72
2019-05-26T22:38:17.001Z,4.80
2019-05-26T22:40:45.885Z,4.50
2019-05-26T22:43:14.723Z,5.00
2019-05-26T22:45:43.913Z,4.70
2019-05-26T22:48:12.746Z,4.37
2019-05-26T22:50:41.575Z,4.30
2019-05-26T22:53:10.699Z,4.60
2019-05-26T22:55:40.179Z,4.00
2019-05-26T22:58:09.051Z,4.30
2019-05-26T23:00:38.124Z,4.80
2019-05-26T23:03:07.138Z,4.67
2019-05-26T23:05:36.069Z,4.10
2019-05-26T23:08:05.248Z,4.40
2019-05-26T23:10:34.126Z,4.07
2019-05-26T23:13:03.828Z,3.90
2019-05-26T23:15:32.706Z,3.85
2019-05-26T23:18:01.627Z,3.35
2019-05-26T23:20:30.513Z,4.10
2019-05-26T23:22:59.703Z,3.50
2019-05-26T23:25:28.558Z,3.52
2019-05-26T23:27:57.734Z,3.50
2019-05-26T23:30:26.709Z,3.77
2019-05-26T23:32:55.535Z,3.25
2019-05-26T23:35:24.565Z,3.50
2019-05-26T23:37:53.424Z,3.50
2019-05-26T23:40:22.678Z,3.50
2019-05-26T23:42:51.744Z,3.13
2019-05-26T23:45:20.663Z,3.55
2019-05-26T23:47:49.802Z,3.10
2019-05-26T23:50:19.070Z,3.00
2019-05-26T23:52:48.559Z,2.75
2019-05-26T23:55:17.507Z,2.92
2019-05-26T23:57:46.253Z,3.10
